Terminal Aerodrome Forecast
Issued by NWS

Home | Current Version | Previous Version | Text Only | Print | Product List | Glossary On
Versions: 1 2 3 4 5 6 7 8 9 10 11 12 13 14 15 16 17 18 19 20 21 22 23 24
000
FTUS46 KLOX 281610 AAB
TAFSBP
TAF AMD
KSBP 281610Z 2816/2912 11005KT 3SM BR OVC005
     FM281800 30006KT P6SM FEW007
     FM282000 31012KT P6SM SKC
     FM290300 30006KT P6SM SKC
     FM291000 VRB03KT 4SM BR BKN003=

USA.gov is the U.S. government's official web portal to all federal, state and local government web resources and services.